Time;durP1;ratioP1;P1;durP2;ratioP2;P2;SDS_P1;SDS_P2;PMS_P1;PMS_P2;Temp;Humidity;BMP_temperature;BMP_pressure;BME280_temperature;BME280_humidity;BME280_pressure;Samples;Min_cycle;Max_cycle;Signal;HPM_P1;HPM_P2
2019/11/10 00:00:28;;;;;;;15.65;11.4;;;;;;;-1.3;96.30762;94429.53;;;;
2019/11/10 00:01:30;;;;;;;15.65;11.4;;;;;;;-1.3;96.30762;94429.53;;;;
2019/11/10 00:02:31;;;;;;;15.65;11.4;;;;;;;-1.3;96.30762;94429.53;;;;
2019/11/10 00:03:32;;;;;;;15.65;11.4;;;;;;;-1.3;96.30762;94429.53;;;;
2019/11/10 00:04:33;;;;;;;15.65;11.4;;;;;;;-1.3;96.30762;94429.53;;;;
2019/11/10 00:05:34;;;;;;;15.65;11.4;;;;;;;-1.3;96.30762;94429.53;;;;
2019/11/10 00:06:35;;;;;;;15.65;11.4;;;;;;;-1.3;96.30762;94429.53;;;;
2019/11/10 00:07:37;;;;;;;15.05;11.3;;;;;;;-1.5;96.54004;94428.05;;;;
2019/11/10 00:08:38;;;;;;;15.05;11.3;;;;;;;-1.5;96.54004;94428.05;;;;
2019/11/10 00:09:39;;;;;;;15.05;11.3;;;;;;;-1.5;96.54004;94428.05;;;;
2019/11/10 00:10:40;;;;;;;15.05;11.3;;;;;;;-1.5;96.54004;94428.05;;;;
2019/11/10 00:11:41;;;;;;;15.05;11.3;;;;;;;-1.5;96.54004;94428.05;;;;
2019/11/10 00:12:43;;;;;;;15.05;11.3;;;;;;;-1.5;96.54004;94428.05;;;;
2019/11/10 00:13:44;;;;;;;15.05;11.3;;;;;;;-1.5;96.54004;94428.05;;;;
2019/11/10 00:14:45;;;;;;;15.05;11.3;;;;;;;-1.5;96.54004;94428.05;;;;
2019/11/10 00:15:46;;;;;;;15.05;11.3;;;;;;;-1.5;96.54004;94428.05;;;;
2019/11/10 00:16:47;;;;;;;15.05;11.3;;;;;;;-1.5;96.54004;94428.05;;;;
2019/11/10 00:17:48;;;;;;;15.05;11.3;;;;;;;-1.5;96.54004;94428.05;;;;
2019/11/10 00:18:49;;;;;;;14.75;10.55;;;;;;;-1.64;96.82031;94419.12;;;;
2019/11/10 00:19:50;;;;;;;14.75;10.55;;;;;;;-1.64;96.82031;94419.12;;;;
2019/11/10 00:20:51;;;;;;;14.75;10.55;;;;;;;-1.64;96.82031;94419.12;;;;
2019/11/10 00:21:52;;;;;;;14.75;10.55;;;;;;;-1.64;96.82031;94419.12;;;;
2019/11/10 00:22:53;;;;;;;14.75;10.55;;;;;;;-1.64;96.82031;94419.12;;;;
2019/11/10 00:23:55;;;;;;;14.75;10.55;;;;;;;-1.64;96.82031;94419.12;;;;
2019/11/10 00:24:56;;;;;;;14.75;10.55;;;;;;;-1.64;96.82031;94419.12;;;;
2019/11/10 00:25:57;;;;;;;14.75;10.55;;;;;;;-1.64;96.82031;94419.12;;;;
2019/11/10 00:26:58;;;;;;;14.75;10.55;;;;;;;-1.64;96.82031;94419.12;;;;
2019/11/10 00:27:59;;;;;;;14.75;10.55;;;;;;;-1.64;96.82031;94419.12;;;;
2019/11/10 00:29:00;;;;;;;17.45;11.7;;;;;;;-1.73;96.92285;94414.51;;;;
2019/11/10 00:30:01;;;;;;;17.45;11.7;;;;;;;-1.73;96.92285;94414.51;;;;
2019/11/10 00:31:03;;;;;;;17.45;11.7;;;;;;;-1.73;96.92285;94414.51;;;;
2019/11/10 00:32:04;;;;;;;17.45;11.7;;;;;;;-1.73;96.92285;94414.51;;;;
2019/11/10 00:33:05;;;;;;;17.45;11.7;;;;;;;-1.73;96.92285;94414.51;;;;
2019/11/10 00:34:06;;;;;;;17.45;11.7;;;;;;;-1.73;96.92285;94414.51;;;;
2019/11/10 00:35:07;;;;;;;17.45;11.7;;;;;;;-1.73;96.92285;94414.51;;;;
2019/11/10 00:36:08;;;;;;;17.45;11.7;;;;;;;-1.73;96.92285;94414.51;;;;
2019/11/10 00:37:09;;;;;;;17.45;11.7;;;;;;;-1.73;96.92285;94414.51;;;;
2019/11/10 00:38:11;;;;;;;17.45;11.7;;;;;;;-1.73;96.92285;94414.51;;;;
2019/11/10 00:39:12;;;;;;;13.7;10.3;;;;;;;-1.72;96.97656;94425.4;;;;
2019/11/10 00:40:13;;;;;;;13.7;10.3;;;;;;;-1.72;96.97656;94425.4;;;;
2019/11/10 00:41:14;;;;;;;13.7;10.3;;;;;;;-1.72;96.97656;94425.4;;;;
2019/11/10 00:42:15;;;;;;;13.7;10.3;;;;;;;-1.72;96.97656;94425.4;;;;
2019/11/10 00:43:16;;;;;;;13.7;10.3;;;;;;;-1.72;96.97656;94425.4;;;;
2019/11/10 00:44:17;;;;;;;13.7;10.3;;;;;;;-1.72;96.97656;94425.4;;;;
2019/11/10 00:45:19;;;;;;;13.7;10.3;;;;;;;-1.72;96.97656;94425.4;;;;
2019/11/10 00:46:20;;;;;;;13.7;10.3;;;;;;;-1.72;96.97656;94425.4;;;;
2019/11/10 00:47:21;;;;;;;13.7;10.3;;;;;;;-1.72;96.97656;94425.4;;;;
2019/11/10 00:48:22;;;;;;;13.7;10.3;;;;;;;-1.72;96.97656;94425.4;;;;
2019/11/10 00:49:23;;;;;;;13.7;10.3;;;;;;;-1.72;96.97656;94425.4;;;;
2019/11/10 00:50:24;;;;;;;15.3;10.7;;;;;;;-1.8;96.85645;94435.57;;;;
2019/11/10 00:51:25;;;;;;;15.3;10.7;;;;;;;-1.8;96.85645;94435.57;;;;
2019/11/10 00:52:27;;;;;;;15.3;10.7;;;;;;;-1.8;96.85645;94435.57;;;;
2019/11/10 00:53:29;;;;;;;15.3;10.7;;;;;;;-1.8;96.85645;94435.57;;;;
2019/11/10 00:54:30;;;;;;;15.3;10.7;;;;;;;-1.8;96.85645;94435.57;;;;
2019/11/10 00:55:31;;;;;;;15.3;10.7;;;;;;;-1.8;96.85645;94435.57;;;;
2019/11/10 00:56:32;;;;;;;15.3;10.7;;;;;;;-1.8;96.85645;94435.57;;;;
2019/11/10 00:57:33;;;;;;;15.3;10.7;;;;;;;-1.8;96.85645;94435.57;;;;
2019/11/10 00:58:34;;;;;;;15.3;10.7;;;;;;;-1.8;96.85645;94435.57;;;;
2019/11/10 00:59:35;;;;;;;15.3;10.7;;;;;;;-1.8;96.85645;94435.57;;;;
2019/11/10 01:00:36;;;;;;;13.4;10.55;;;;;;;-1.81;96.79395;94434.35;;;;
2019/11/10 01:01:37;;;;;;;13.4;10.55;;;;;;;-1.81;96.79395;94434.35;;;;
2019/11/10 01:02:39;;;;;;;13.4;10.55;;;;;;;-1.81;96.79395;94434.35;;;;
2019/11/10 01:03:40;;;;;;;13.4;10.55;;;;;;;-1.81;96.79395;94434.35;;;;
2019/11/10 01:04:41;;;;;;;13.4;10.55;;;;;;;-1.81;96.79395;94434.35;;;;
2019/11/10 01:05:42;;;;;;;13.4;10.55;;;;;;;-1.81;96.79395;94434.35;;;;
2019/11/10 01:06:43;;;;;;;13.4;10.55;;;;;;;-1.81;96.79395;94434.35;;;;
2019/11/10 01:07:44;;;;;;;13.4;10.55;;;;;;;-1.81;96.79395;94434.35;;;;
2019/11/10 01:08:45;;;;;;;13.4;10.55;;;;;;;-1.81;96.79395;94434.35;;;;
2019/11/10 01:09:46;;;;;;;13.4;10.55;;;;;;;-1.81;96.79395;94434.35;;;;
2019/11/10 01:10:47;;;;;;;13.4;10.55;;;;;;;-1.81;96.79395;94434.35;;;;
2019/11/10 01:11:49;;;;;;;14.25;9.85;;;;;;;-1.85;96.62891;94436.63;;;;
2019/11/10 01:12:50;;;;;;;14.25;9.85;;;;;;;-1.85;96.62891;94436.63;;;;
2019/11/10 01:13:51;;;;;;;14.25;9.85;;;;;;;-1.85;96.62891;94436.63;;;;
2019/11/10 01:14:52;;;;;;;14.25;9.85;;;;;;;-1.85;96.62891;94436.63;;;;
2019/11/10 01:15:53;;;;;;;14.25;9.85;;;;;;;-1.85;96.62891;94436.63;;;;
2019/11/10 01:16:54;;;;;;;14.25;9.85;;;;;;;-1.85;96.62891;94436.63;;;;
2019/11/10 01:17:55;;;;;;;14.25;9.85;;;;;;;-1.85;96.62891;94436.63;;;;
2019/11/10 01:18:56;;;;;;;14.25;9.85;;;;;;;-1.85;96.62891;94436.63;;;;
2019/11/10 01:19:58;;;;;;;14.25;9.85;;;;;;;-1.85;96.62891;94436.63;;;;
2019/11/10 01:20:59;;;;;;;14.25;9.85;;;;;;;-1.85;96.62891;94436.63;;;;
2019/11/10 01:22:00;;;;;;;14.3;10.15;;;;;;;-1.96;96.81934;94441.03;;;;
2019/11/10 01:23:01;;;;;;;14.3;10.15;;;;;;;-1.96;96.81934;94441.03;;;;
2019/11/10 01:24:02;;;;;;;14.3;10.15;;;;;;;-1.96;96.81934;94441.03;;;;
2019/11/10 01:25:03;;;;;;;14.3;10.15;;;;;;;-1.96;96.81934;94441.03;;;;
2019/11/10 01:26:04;;;;;;;14.3;10.15;;;;;;;-1.96;96.81934;94441.03;;;;
2019/11/10 01:27:06;;;;;;;14.3;10.15;;;;;;;-1.96;96.81934;94441.03;;;;
2019/11/10 01:28:07;;;;;;;14.3;10.15;;;;;;;-1.96;96.81934;94441.03;;;;
2019/11/10 01:29:08;;;;;;;14.3;10.15;;;;;;;-1.96;96.81934;94441.03;;;;
2019/11/10 01:30:09;;;;;;;14.3;10.15;;;;;;;-1.96;96.81934;94441.03;;;;
2019/11/10 01:31:10;;;;;;;14.3;10.15;;;;;;;-1.96;96.81934;94441.03;;;;
2019/11/10 01:32:11;;;;;;;15.4;9.25;;;;;;;-1.96;96.83008;94433.09;;;;
2019/11/10 01:33:12;;;;;;;15.4;9.25;;;;;;;-1.96;96.83008;94433.09;;;;
2019/11/10 01:34:13;;;;;;;15.4;9.25;;;;;;;-1.96;96.83008;94433.09;;;;
2019/11/10 01:35:15;;;;;;;15.4;9.25;;;;;;;-1.96;96.83008;94433.09;;;;
2019/11/10 01:36:16;;;;;;;15.4;9.25;;;;;;;-1.96;96.83008;94433.09;;;;
2019/11/10 01:37:17;;;;;;;15.4;9.25;;;;;;;-1.96;96.83008;94433.09;;;;
2019/11/10 01:38:18;;;;;;;15.4;9.25;;;;;;;-1.96;96.83008;94433.09;;;;
2019/11/10 01:39:19;;;;;;;15.4;9.25;;;;;;;-1.96;96.83008;94433.09;;;;
2019/11/10 01:40:20;;;;;;;15.4;9.25;;;;;;;-1.96;96.83008;94433.09;;;;
2019/11/10 01:41:22;;;;;;;15.4;9.25;;;;;;;-1.96;96.83008;94433.09;;;;
2019/11/10 01:42:23;;;;;;;15.4;9.25;;;;;;;-1.96;96.83008;94433.09;;;;
2019/11/10 01:43:24;;;;;;;11.95;8.150001;;;;;;;-2.03;96.83594;94429.53;;;;
2019/11/10 01:44:25;;;;;;;11.95;8.150001;;;;;;;-2.03;96.83594;94429.53;;;;
2019/11/10 01:45:26;;;;;;;11.95;8.150001;;;;;;;-2.03;96.83594;94429.53;;;;
2019/11/10 01:46:27;;;;;;;11.95;8.150001;;;;;;;-2.03;96.83594;94429.53;;;;
2019/11/10 01:47:28;;;;;;;11.95;8.150001;;;;;;;-2.03;96.83594;94429.53;;;;
2019/11/10 01:48:29;;;;;;;11.95;8.150001;;;;;;;-2.03;96.83594;94429.53;;;;
2019/11/10 01:49:30;;;;;;;11.95;8.150001;;;;;;;-2.03;96.83594;94429.53;;;;
2019/11/10 01:50:31;;;;;;;11.95;8.150001;;;;;;;-2.03;96.83594;94429.53;;;;
2019/11/10 01:51:32;;;;;;;11.95;8.150001;;;;;;;-2.03;96.83594;94429.53;;;;
2019/11/10 01:52:34;;;;;;;11.95;8.150001;;;;;;;-2.03;96.83594;94429.53;;;;
2019/11/10 01:53:35;;;;;;;11.9;8.399999;;;;;;;-2.04;97.03711;94429.72;;;;
2019/11/10 01:54:36;;;;;;;11.9;8.399999;;;;;;;-2.04;97.03711;94429.72;;;;
2019/11/10 01:55:37;;;;;;;11.9;8.399999;;;;;;;-2.04;97.03711;94429.72;;;;
2019/11/10 01:56:38;;;;;;;11.9;8.399999;;;;;;;-2.04;97.03711;94429.72;;;;
2019/11/10 01:57:39;;;;;;;11.9;8.399999;;;;;;;-2.04;97.03711;94429.72;;;;
2019/11/10 01:58:40;;;;;;;11.9;8.399999;;;;;;;-2.04;97.03711;94429.72;;;;
2019/11/10 01:59:41;;;;;;;11.9;8.399999;;;;;;;-2.04;97.03711;94429.72;;;;
2019/11/10 02:00:43;;;;;;;11.9;8.399999;;;;;;;-2.04;97.03711;94429.72;;;;
2019/11/10 02:01:44;;;;;;;11.9;8.399999;;;;;;;-2.04;97.03711;94429.72;;;;
2019/11/10 02:02:45;;;;;;;11.9;8.399999;;;;;;;-2.04;97.03711;94429.72;;;;
2019/11/10 02:03:46;;;;;;;11.9;8.399999;;;;;;;-2.04;97.03711;94429.72;;;;
2019/11/10 02:04:47;;;;;;;11.9;8.75;;;;;;;-1.9;97.06152;94423.53;;;;
2019/11/10 02:05:49;;;;;;;11.9;8.75;;;;;;;-1.9;97.06152;94423.53;;;;
2019/11/10 02:06:50;;;;;;;11.9;8.75;;;;;;;-1.9;97.06152;94423.53;;;;
2019/11/10 02:07:51;;;;;;;11.9;8.75;;;;;;;-1.9;97.06152;94423.53;;;;
2019/11/10 02:08:52;;;;;;;11.9;8.75;;;;;;;-1.9;97.06152;94423.53;;;;
2019/11/10 02:09:53;;;;;;;11.9;8.75;;;;;;;-1.9;97.06152;94423.53;;;;
2019/11/10 02:10:54;;;;;;;11.9;8.75;;;;;;;-1.9;97.06152;94423.53;;;;
2019/11/10 02:11:55;;;;;;;11.9;8.75;;;;;;;-1.9;97.06152;94423.53;;;;
2019/11/10 02:12:57;;;;;;;11.9;8.75;;;;;;;-1.9;97.06152;94423.53;;;;
2019/11/10 02:13:58;;;;;;;11.9;8.75;;;;;;;-1.9;97.06152;94423.53;;;;
2019/11/10 02:15:00;;;;;;;17.6;10.75;;;;;;;-1.57;96.81445;94421.77;;;;
2019/11/10 02:16:01;;;;;;;17.6;10.75;;;;;;;-1.57;96.81445;94421.77;;;;
2019/11/10 02:17:02;;;;;;;17.6;10.75;;;;;;;-1.57;96.81445;94421.77;;;;
2019/11/10 02:18:03;;;;;;;17.6;10.75;;;;;;;-1.57;96.81445;94421.77;;;;
2019/11/10 02:19:04;;;;;;;17.6;10.75;;;;;;;-1.57;96.81445;94421.77;;;;
2019/11/10 02:20:06;;;;;;;17.6;10.75;;;;;;;-1.57;96.81445;94421.77;;;;
2019/11/10 02:21:07;;;;;;;17.6;10.75;;;;;;;-1.57;96.81445;94421.77;;;;
2019/11/10 02:22:08;;;;;;;17.6;10.75;;;;;;;-1.57;96.81445;94421.77;;;;
2019/11/10 02:23:09;;;;;;;17.6;10.75;;;;;;;-1.57;96.81445;94421.77;;;;
2019/11/10 02:24:10;;;;;;;17.6;10.75;;;;;;;-1.57;96.81445;94421.77;;;;
2019/11/10 02:25:11;;;;;;;17.6;10.75;;;;;;;-1.57;96.81445;94421.77;;;;
2019/11/10 02:26:13;;;;;;;21.4;13;;;;;;;-1.22;96.73828;94423.74;;;;
2019/11/10 02:27:14;;;;;;;21.4;13;;;;;;;-1.22;96.73828;94423.74;;;;
2019/11/10 02:28:15;;;;;;;21.4;13;;;;;;;-1.22;96.73828;94423.74;;;;
2019/11/10 02:29:16;;;;;;;21.4;13;;;;;;;-1.22;96.73828;94423.74;;;;
2019/11/10 02:30:17;;;;;;;21.4;13;;;;;;;-1.22;96.73828;94423.74;;;;
2019/11/10 02:31:19;;;;;;;21.4;13;;;;;;;-1.22;96.73828;94423.74;;;;
2019/11/10 02:32:20;;;;;;;21.4;13;;;;;;;-1.22;96.73828;94423.74;;;;
2019/11/10 02:33:21;;;;;;;21.4;13;;;;;;;-1.22;96.73828;94423.74;;;;
2019/11/10 02:34:22;;;;;;;21.4;13;;;;;;;-1.22;96.73828;94423.74;;;;
2019/11/10 02:35:56;;;;;;;23.05;11.9;;;;;;;-0.9;96.49023;94421.55;;;;
2019/11/10 02:36:58;;;;;;;23.05;11.9;;;;;;;-0.9;96.49023;94421.55;;;;
2019/11/10 02:37:59;;;;;;;23.05;11.9;;;;;;;-0.9;96.49023;94421.55;;;;
2019/11/10 02:39:00;;;;;;;23.05;11.9;;;;;;;-0.9;96.49023;94421.55;;;;
2019/11/10 02:40:01;;;;;;;23.05;11.9;;;;;;;-0.9;96.49023;94421.55;;;;
2019/11/10 02:41:05;;;;;;;23.05;11.9;;;;;;;-0.9;96.49023;94421.55;;;;
2019/11/10 02:42:06;;;;;;;23.05;11.9;;;;;;;-0.9;96.49023;94421.55;;;;
2019/11/10 02:43:07;;;;;;;23.05;11.9;;;;;;;-0.9;96.49023;94421.55;;;;
2019/11/10 02:44:09;;;;;;;23.05;11.9;;;;;;;-0.9;96.49023;94421.55;;;;
2019/11/10 02:45:10;;;;;;;23.05;11.9;;;;;;;-0.9;96.49023;94421.55;;;;
2019/11/10 02:46:12;;;;;;;23.05;11.9;;;;;;;-0.9;96.49023;94421.55;;;;
2019/11/10 02:47:13;;;;;;;18.6;11.9;;;;;;;-0.77;96.49707;94416.39;;;;
2019/11/10 02:48:14;;;;;;;18.6;11.9;;;;;;;-0.77;96.49707;94416.39;;;;
2019/11/10 02:49:15;;;;;;;18.6;11.9;;;;;;;-0.77;96.49707;94416.39;;;;
2019/11/10 02:50:16;;;;;;;18.6;11.9;;;;;;;-0.77;96.49707;94416.39;;;;
2019/11/10 02:51:17;;;;;;;18.6;11.9;;;;;;;-0.77;96.49707;94416.39;;;;
2019/11/10 02:52:19;;;;;;;18.6;11.9;;;;;;;-0.77;96.49707;94416.39;;;;
2019/11/10 02:53:20;;;;;;;18.6;11.9;;;;;;;-0.77;96.49707;94416.39;;;;
2019/11/10 02:54:21;;;;;;;18.6;11.9;;;;;;;-0.77;96.49707;94416.39;;;;
2019/11/10 02:55:22;;;;;;;18.6;11.9;;;;;;;-0.77;96.49707;94416.39;;;;
2019/11/10 02:56:24;;;;;;;18.6;11.9;;;;;;;-0.77;96.49707;94416.39;;;;
2019/11/10 02:57:25;;;;;;;18.35;12.5;;;;;;;-0.71;96.61816;94426.64;;;;
2019/11/10 02:58:26;;;;;;;18.35;12.5;;;;;;;-0.71;96.61816;94426.64;;;;
2019/11/10 02:59:27;;;;;;;18.35;12.5;;;;;;;-0.71;96.61816;94426.64;;;;
2019/11/10 03:00:29;;;;;;;18.35;12.5;;;;;;;-0.71;96.61816;94426.64;;;;
2019/11/10 03:01:30;;;;;;;18.35;12.5;;;;;;;-0.71;96.61816;94426.64;;;;
2019/11/10 03:02:31;;;;;;;18.35;12.5;;;;;;;-0.71;96.61816;94426.64;;;;
2019/11/10 03:03:33;;;;;;;18.35;12.5;;;;;;;-0.71;96.61816;94426.64;;;;
2019/11/10 03:04:34;;;;;;;18.35;12.5;;;;;;;-0.71;96.61816;94426.64;;;;
2019/11/10 03:05:35;;;;;;;18.35;12.5;;;;;;;-0.71;96.61816;94426.64;;;;
2019/11/10 03:06:36;;;;;;;18.35;12.5;;;;;;;-0.71;96.61816;94426.64;;;;
2019/11/10 03:07:37;;;;;;;18.35;12.5;;;;;;;-0.71;96.61816;94426.64;;;;
2019/11/10 03:08:55;;;;;;;14.85;10.8;;;;;;;-0.86;96.6748;94428.12;;;;
2019/11/10 03:09:56;;;;;;;14.85;10.8;;;;;;;-0.86;96.6748;94428.12;;;;
2019/11/10 03:10:57;;;;;;;14.85;10.8;;;;;;;-0.86;96.6748;94428.12;;;;
2019/11/10 03:11:59;;;;;;;14.85;10.8;;;;;;;-0.86;96.6748;94428.12;;;;
2019/11/10 03:13:00;;;;;;;14.85;10.8;;;;;;;-0.86;96.6748;94428.12;;;;
2019/11/10 03:14:01;;;;;;;14.85;10.8;;;;;;;-0.86;96.6748;94428.12;;;;
2019/11/10 03:15:03;;;;;;;14.85;10.8;;;;;;;-0.86;96.6748;94428.12;;;;
2019/11/10 03:16:04;;;;;;;14.85;10.8;;;;;;;-0.86;96.6748;94428.12;;;;
2019/11/10 03:17:06;;;;;;;14.85;10.8;;;;;;;-0.86;96.6748;94428.12;;;;
2019/11/10 03:18:07;;;;;;;14.85;10.8;;;;;;;-0.86;96.6748;94428.12;;;;
2019/11/10 03:19:08;;;;;;;16.75;11.1;;;;;;;-1.1;96.99414;94427.95;;;;
2019/11/10 03:20:09;;;;;;;16.75;11.1;;;;;;;-1.1;96.99414;94427.95;;;;
2019/11/10 03:21:10;;;;;;;16.75;11.1;;;;;;;-1.1;96.99414;94427.95;;;;
2019/11/10 03:22:12;;;;;;;16.75;11.1;;;;;;;-1.1;96.99414;94427.95;;;;
2019/11/10 03:23:13;;;;;;;16.75;11.1;;;;;;;-1.1;96.99414;94427.95;;;;
2019/11/10 03:24:14;;;;;;;16.75;11.1;;;;;;;-1.1;96.99414;94427.95;;;;
2019/11/10 03:25:15;;;;;;;16.75;11.1;;;;;;;-1.1;96.99414;94427.95;;;;
2019/11/10 03:26:16;;;;;;;16.75;11.1;;;;;;;-1.1;96.99414;94427.95;;;;
2019/11/10 03:27:18;;;;;;;16.75;11.1;;;;;;;-1.1;96.99414;94427.95;;;;
2019/11/10 03:28:19;;;;;;;16.75;11.1;;;;;;;-1.1;96.99414;94427.95;;;;
2019/11/10 03:29:20;;;;;;;15.9;10.75;;;;;;;-1.34;97.39258;94434.88;;;;
2019/11/10 03:30:21;;;;;;;15.9;10.75;;;;;;;-1.34;97.39258;94434.88;;;;
2019/11/10 03:31:22;;;;;;;15.9;10.75;;;;;;;-1.34;97.39258;94434.88;;;;
2019/11/10 03:32:23;;;;;;;15.9;10.75;;;;;;;-1.34;97.39258;94434.88;;;;
2019/11/10 03:33:25;;;;;;;15.9;10.75;;;;;;;-1.34;97.39258;94434.88;;;;
2019/11/10 03:34:26;;;;;;;15.9;10.75;;;;;;;-1.34;97.39258;94434.88;;;;
2019/11/10 03:35:27;;;;;;;15.9;10.75;;;;;;;-1.34;97.39258;94434.88;;;;
2019/11/10 03:36:28;;;;;;;15.9;10.75;;;;;;;-1.34;97.39258;94434.88;;;;
2019/11/10 03:37:29;;;;;;;15.9;10.75;;;;;;;-1.34;97.39258;94434.88;;;;
2019/11/10 03:38:31;;;;;;;15.9;10.75;;;;;;;-1.34;97.39258;94434.88;;;;
2019/11/10 03:39:32;;;;;;;17.1;10.6;;;;;;;-1.48;97.51758;94424.22;;;;
2019/11/10 03:40:33;;;;;;;17.1;10.6;;;;;;;-1.48;97.51758;94424.22;;;;
2019/11/10 03:41:34;;;;;;;17.1;10.6;;;;;;;-1.48;97.51758;94424.22;;;;
2019/11/10 03:42:35;;;;;;;17.1;10.6;;;;;;;-1.48;97.51758;94424.22;;;;
2019/11/10 03:43:36;;;;;;;17.1;10.6;;;;;;;-1.48;97.51758;94424.22;;;;
2019/11/10 03:44:37;;;;;;;17.1;10.6;;;;;;;-1.48;97.51758;94424.22;;;;
2019/11/10 03:45:39;;;;;;;17.1;10.6;;;;;;;-1.48;97.51758;94424.22;;;;
2019/11/10 03:46:42;;;;;;;17.1;10.6;;;;;;;-1.48;97.51758;94424.22;;;;
2019/11/10 03:47:44;;;;;;;17.1;10.6;;;;;;;-1.48;97.51758;94424.22;;;;
2019/11/10 03:48:46;;;;;;;17.1;10.6;;;;;;;-1.48;97.51758;94424.22;;;;
2019/11/10 03:49:47;;;;;;;17.1;10.6;;;;;;;-1.48;97.51758;94424.22;;;;
2019/11/10 03:50:50;;;;;;;15.75;11.85;;;;;;;-1.57;97.78516;94425.81;;;;
2019/11/10 03:51:54;;;;;;;15.75;11.85;;;;;;;-1.57;97.78516;94425.81;;;;
2019/11/10 03:52:56;;;;;;;15.75;11.85;;;;;;;-1.57;97.78516;94425.81;;;;
2019/11/10 03:53:57;;;;;;;15.75;11.85;;;;;;;-1.57;97.78516;94425.81;;;;
2019/11/10 03:54:58;;;;;;;15.75;11.85;;;;;;;-1.57;97.78516;94425.81;;;;
2019/11/10 03:55:59;;;;;;;15.75;11.85;;;;;;;-1.57;97.78516;94425.81;;;;
2019/11/10 03:57:06;;;;;;;15.75;11.85;;;;;;;-1.57;97.78516;94425.81;;;;
2019/11/10 03:58:09;;;;;;;15.75;11.85;;;;;;;-1.57;97.78516;94425.81;;;;
2019/11/10 03:59:10;;;;;;;15.75;11.85;;;;;;;-1.57;97.78516;94425.81;;;;
2019/11/10 04:00:12;;;;;;;15.75;11.85;;;;;;;-1.57;97.78516;94425.81;;;;
2019/11/10 04:01:13;;;;;;;40.05;15.05;;;;;;;-1.27;98.16406;94434.45;;;;
2019/11/10 04:02:15;;;;;;;40.05;15.05;;;;;;;-1.27;98.16406;94434.45;;;;
2019/11/10 04:03:16;;;;;;;40.05;15.05;;;;;;;-1.27;98.16406;94434.45;;;;
2019/11/10 04:04:17;;;;;;;40.05;15.05;;;;;;;-1.27;98.16406;94434.45;;;;
2019/11/10 04:05:18;;;;;;;40.05;15.05;;;;;;;-1.27;98.16406;94434.45;;;;
2019/11/10 04:06:19;;;;;;;40.05;15.05;;;;;;;-1.27;98.16406;94434.45;;;;
2019/11/10 04:07:20;;;;;;;40.05;15.05;;;;;;;-1.27;98.16406;94434.45;;;;
2019/11/10 04:08:21;;;;;;;40.05;15.05;;;;;;;-1.27;98.16406;94434.45;;;;
2019/11/10 04:09:22;;;;;;;40.05;15.05;;;;;;;-1.27;98.16406;94434.45;;;;
2019/11/10 04:10:24;;;;;;;40.05;15.05;;;;;;;-1.27;98.16406;94434.45;;;;
2019/11/10 04:11:25;;;;;;;23.75;14.55;;;;;;;-0.89;97.55859;94432.44;;;;
2019/11/10 04:12:27;;;;;;;23.75;14.55;;;;;;;-0.89;97.55859;94432.44;;;;
2019/11/10 04:13:28;;;;;;;23.75;14.55;;;;;;;-0.89;97.55859;94432.44;;;;
2019/11/10 04:14:29;;;;;;;23.75;14.55;;;;;;;-0.89;97.55859;94432.44;;;;
2019/11/10 04:15:31;;;;;;;23.75;14.55;;;;;;;-0.89;97.55859;94432.44;;;;
2019/11/10 04:16:32;;;;;;;23.75;14.55;;;;;;;-0.89;97.55859;94432.44;;;;
2019/11/10 04:17:33;;;;;;;23.75;14.55;;;;;;;-0.89;97.55859;94432.44;;;;
2019/11/10 04:18:35;;;;;;;23.75;14.55;;;;;;;-0.89;97.55859;94432.44;;;;
2019/11/10 04:19:36;;;;;;;23.75;14.55;;;;;;;-0.89;97.55859;94432.44;;;;
2019/11/10 04:20:38;;;;;;;23.75;14.55;;;;;;;-0.89;97.55859;94432.44;;;;
2019/11/10 04:21:39;;;;;;;23.75;14.55;;;;;;;-0.89;97.55859;94432.44;;;;
2019/11/10 04:22:40;;;;;;;25.9;13.1;;;;;;;-0.65;97.27246;94424.56;;;;
2019/11/10 04:23:42;;;;;;;25.9;13.1;;;;;;;-0.65;97.27246;94424.56;;;;
2019/11/10 04:24:43;;;;;;;25.9;13.1;;;;;;;-0.65;97.27246;94424.56;;;;
2019/11/10 04:25:44;;;;;;;25.9;13.1;;;;;;;-0.65;97.27246;94424.56;;;;
2019/11/10 04:26:45;;;;;;;25.9;13.1;;;;;;;-0.65;97.27246;94424.56;;;;
2019/11/10 04:27:46;;;;;;;25.9;13.1;;;;;;;-0.65;97.27246;94424.56;;;;
2019/11/10 04:28:47;;;;;;;25.9;13.1;;;;;;;-0.65;97.27246;94424.56;;;;
2019/11/10 04:29:49;;;;;;;25.9;13.1;;;;;;;-0.65;97.27246;94424.56;;;;
2019/11/10 04:30:50;;;;;;;25.9;13.1;;;;;;;-0.65;97.27246;94424.56;;;;
2019/11/10 04:31:51;;;;;;;25.9;13.1;;;;;;;-0.65;97.27246;94424.56;;;;
2019/11/10 04:32:52;;;;;;;30.95;12.85;;;;;;;-0.55;97.23438;94419.26;;;;
2019/11/10 04:33:53;;;;;;;30.95;12.85;;;;;;;-0.55;97.23438;94419.26;;;;
2019/11/10 04:34:54;;;;;;;30.95;12.85;;;;;;;-0.55;97.23438;94419.26;;;;
2019/11/10 04:35:55;;;;;;;30.95;12.85;;;;;;;-0.55;97.23438;94419.26;;;;
2019/11/10 04:36:57;;;;;;;30.95;12.85;;;;;;;-0.55;97.23438;94419.26;;;;
2019/11/10 04:37:58;;;;;;;30.95;12.85;;;;;;;-0.55;97.23438;94419.26;;;;
2019/11/10 04:38:59;;;;;;;30.95;12.85;;;;;;;-0.55;97.23438;94419.26;;;;
2019/11/10 04:40:00;;;;;;;30.95;12.85;;;;;;;-0.55;97.23438;94419.26;;;;
2019/11/10 04:41:01;;;;;;;30.95;12.85;;;;;;;-0.55;97.23438;94419.26;;;;
2019/11/10 04:42:02;;;;;;;30.95;12.85;;;;;;;-0.55;97.23438;94419.26;;;;
2019/11/10 04:43:03;;;;;;;30.95;12.85;;;;;;;-0.55;97.23438;94419.26;;;;
2019/11/10 04:44:05;;;;;;;50.29999;12.55;;;;;;;-0.54;97.3916;94418.24;;;;
2019/11/10 04:45:06;;;;;;;50.29999;12.55;;;;;;;-0.54;97.3916;94418.24;;;;
2019/11/10 04:46:07;;;;;;;50.29999;12.55;;;;;;;-0.54;97.3916;94418.24;;;;
2019/11/10 04:47:08;;;;;;;50.29999;12.55;;;;;;;-0.54;97.3916;94418.24;;;;
2019/11/10 04:48:09;;;;;;;50.29999;12.55;;;;;;;-0.54;97.3916;94418.24;;;;
2019/11/10 04:49:10;;;;;;;50.29999;12.55;;;;;;;-0.54;97.3916;94418.24;;;;
2019/11/10 04:50:11;;;;;;;50.29999;12.55;;;;;;;-0.54;97.3916;94418.24;;;;
2019/11/10 04:51:13;;;;;;;50.29999;12.55;;;;;;;-0.54;97.3916;94418.24;;;;
2019/11/10 04:52:14;;;;;;;50.29999;12.55;;;;;;;-0.54;97.3916;94418.24;;;;
2019/11/10 04:53:15;;;;;;;50.29999;12.55;;;;;;;-0.54;97.3916;94418.24;;;;
2019/11/10 04:54:16;;;;;;;20.95;11.4;;;;;;;-0.43;97.5293;94409.89;;;;
2019/11/10 04:55:17;;;;;;;20.95;11.4;;;;;;;-0.43;97.5293;94409.89;;;;
2019/11/10 04:56:21;;;;;;;20.95;11.4;;;;;;;-0.43;97.5293;94409.89;;;;
2019/11/10 04:57:33;;;;;;;20.95;11.4;;;;;;;-0.43;97.5293;94409.89;;;;
2019/11/10 04:58:40;;;;;;;20.95;11.4;;;;;;;-0.43;97.5293;94409.89;;;;
2019/11/10 04:59:42;;;;;;;20.95;11.4;;;;;;;-0.43;97.5293;94409.89;;;;
2019/11/10 05:00:43;;;;;;;20.95;11.4;;;;;;;-0.43;97.5293;94409.89;;;;
2019/11/10 05:01:44;;;;;;;20.95;11.4;;;;;;;-0.43;97.5293;94409.89;;;;
2019/11/10 05:02:45;;;;;;;20.95;11.4;;;;;;;-0.43;97.5293;94409.89;;;;
2019/11/10 05:03:46;;;;;;;20.95;11.4;;;;;;;-0.43;97.5293;94409.89;;;;
2019/11/10 05:04:47;;;;;;;21.6;12.05;;;;;;;-0.4;97.55859;94416.54;;;;
2019/11/10 05:05:49;;;;;;;21.6;12.05;;;;;;;-0.4;97.55859;94416.54;;;;
2019/11/10 05:06:50;;;;;;;21.6;12.05;;;;;;;-0.4;97.55859;94416.54;;;;
2019/11/10 05:07:51;;;;;;;21.6;12.05;;;;;;;-0.4;97.55859;94416.54;;;;
2019/11/10 05:08:52;;;;;;;21.6;12.05;;;;;;;-0.4;97.55859;94416.54;;;;
2019/11/10 05:09:53;;;;;;;21.6;12.05;;;;;;;-0.4;97.55859;94416.54;;;;
2019/11/10 05:10:54;;;;;;;21.6;12.05;;;;;;;-0.4;97.55859;94416.54;;;;
2019/11/10 05:11:55;;;;;;;21.6;12.05;;;;;;;-0.4;97.55859;94416.54;;;;
2019/11/10 05:12:56;;;;;;;21.6;12.05;;;;;;;-0.4;97.55859;94416.54;;;;
2019/11/10 05:13:57;;;;;;;21.6;12.05;;;;;;;-0.4;97.55859;94416.54;;;;
2019/11/10 05:14:58;;;;;;;21.6;12.05;;;;;;;-0.4;97.55859;94416.54;;;;
2019/11/10 05:15:59;;;;;;;35.75;12.05;;;;;;;-0.31;97.7334;94420.7;;;;
2019/11/10 05:17:01;;;;;;;35.75;12.05;;;;;;;-0.31;97.7334;94420.7;;;;
2019/11/10 05:18:02;;;;;;;35.75;12.05;;;;;;;-0.31;97.7334;94420.7;;;;
2019/11/10 05:19:03;;;;;;;35.75;12.05;;;;;;;-0.31;97.7334;94420.7;;;;
2019/11/10 05:20:04;;;;;;;35.75;12.05;;;;;;;-0.31;97.7334;94420.7;;;;
2019/11/10 05:21:05;;;;;;;35.75;12.05;;;;;;;-0.31;97.7334;94420.7;;;;
2019/11/10 05:22:06;;;;;;;35.75;12.05;;;;;;;-0.31;97.7334;94420.7;;;;
2019/11/10 05:23:07;;;;;;;35.75;12.05;;;;;;;-0.31;97.7334;94420.7;;;;
2019/11/10 05:24:08;;;;;;;35.75;12.05;;;;;;;-0.31;97.7334;94420.7;;;;
2019/11/10 05:25:09;;;;;;;35.75;12.05;;;;;;;-0.31;97.7334;94420.7;;;;
2019/11/10 05:26:11;;;;;;;58.7;13.45;;;;;;;-0.25;97.63184;94427.87;;;;
2019/11/10 05:27:12;;;;;;;58.7;13.45;;;;;;;-0.25;97.63184;94427.87;;;;
2019/11/10 05:28:13;;;;;;;58.7;13.45;;;;;;;-0.25;97.63184;94427.87;;;;
2019/11/10 05:29:14;;;;;;;58.7;13.45;;;;;;;-0.25;97.63184;94427.87;;;;
2019/11/10 05:30:15;;;;;;;58.7;13.45;;;;;;;-0.25;97.63184;94427.87;;;;
2019/11/10 05:31:16;;;;;;;58.7;13.45;;;;;;;-0.25;97.63184;94427.87;;;;
2019/11/10 05:32:17;;;;;;;58.7;13.45;;;;;;;-0.25;97.63184;94427.87;;;;
2019/11/10 05:33:18;;;;;;;58.7;13.45;;;;;;;-0.25;97.63184;94427.87;;;;
2019/11/10 05:34:19;;;;;;;58.7;13.45;;;;;;;-0.25;97.63184;94427.87;;;;
2019/11/10 05:35:21;;;;;;;58.7;13.45;;;;;;;-0.25;97.63184;94427.87;;;;
2019/11/10 05:36:22;;;;;;;45.7;12.35;;;;;;;-0.28;97.6875;94434.89;;;;
2019/11/10 05:37:23;;;;;;;45.7;12.35;;;;;;;-0.28;97.6875;94434.89;;;;
2019/11/10 05:38:24;;;;;;;45.7;12.35;;;;;;;-0.28;97.6875;94434.89;;;;
2019/11/10 05:39:25;;;;;;;45.7;12.35;;;;;;;-0.28;97.6875;94434.89;;;;
2019/11/10 05:40:26;;;;;;;45.7;12.35;;;;;;;-0.28;97.6875;94434.89;;;;
2019/11/10 05:41:27;;;;;;;45.7;12.35;;;;;;;-0.28;97.6875;94434.89;;;;
2019/11/10 05:42:28;;;;;;;45.7;12.35;;;;;;;-0.28;97.6875;94434.89;;;;